createdAt,value
2023-01-07T00:01:48.541Z,10.93
2023-01-07T00:05:30.908Z,10.35
2023-01-07T00:09:48.887Z,7.12
2023-01-07T00:13:11.790Z,9.25
2023-01-07T00:16:55.810Z,9.15
2023-01-07T00:20:37.257Z,12.57
2023-01-07T00:23:46.519Z,11.67
2023-01-07T00:31:37.097Z,12.07
2023-01-07T00:35:26.235Z,10.80
2023-01-07T00:38:40.004Z,10.63
2023-01-07T00:42:09.531Z,8.05
2023-01-07T00:45:37.712Z,6.68
2023-01-07T00:49:01.653Z,7.85
2023-01-07T00:52:48.206Z,6.65
2023-01-07T00:56:33.851Z,5.37
2023-01-07T00:59:59.556Z,5.72
2023-01-07T01:03:23.279Z,7.03
2023-01-07T01:07:11.970Z,6.12
2023-01-07T01:10:48.239Z,5.28
2023-01-07T01:14:12.007Z,5.22
2023-01-07T01:17:40.232Z,5.62
2023-01-07T01:21:19.312Z,5.78
2023-01-07T01:24:46.579Z,4.90
2023-01-07T01:28:32.131Z,5.15
2023-01-07T01:32:14.908Z,5.28
2023-01-07T01:35:27.764Z,5.45
2023-01-07T01:38:51.783Z,5.60
2023-01-07T01:42:35.046Z,4.30
2023-01-07T01:45:44.616Z,5.28
2023-01-07T01:49:47.390Z,4.93
2023-01-07T01:53:35.029Z,5.18
2023-01-07T01:57:05.691Z,5.20
2023-01-07T02:00:49.802Z,4.32
2023-01-07T02:04:56.439Z,5.12
2023-01-07T02:08:22.296Z,4.22
2023-01-07T02:11:47.637Z,4.62
2023-01-07T02:15:34.659Z,4.62
2023-01-07T02:19:32.978Z,4.78
2023-01-07T02:23:50.557Z,4.18
2023-01-07T02:31:57.688Z,3.30
2023-01-07T02:35:22.265Z,5.00
2023-01-07T02:39:10.665Z,5.28
2023-01-07T02:42:49.474Z,4.72
2023-01-07T02:46:43.339Z,4.65
2023-01-07T02:50:28.118Z,5.00
2023-01-07T02:54:22.413Z,4.87
2023-01-07T02:58:26.151Z,4.30
2023-01-07T03:01:49.248Z,5.40
2023-01-07T03:05:30.173Z,5.25
2023-01-07T03:09:40.467Z,4.78
2023-01-07T03:13:32.514Z,3.70
2023-01-07T03:17:37.667Z,4.40
2023-01-07T03:25:04.744Z,3.67
2023-01-07T03:28:41.180Z,4.35
2023-01-07T03:32:39.345Z,3.83
2023-01-07T03:36:19.618Z,5.37
2023-01-07T03:39:48.343Z,4.10
2023-01-07T03:43:24.125Z,4.00
2023-01-07T03:46:52.658Z,4.10
2023-01-07T03:50:19.808Z,4.93
2023-01-07T03:54:00.436Z,4.85
2023-01-07T03:57:36.942Z,4.68
2023-01-07T04:01:13.381Z,4.72
2023-01-07T04:04:33.654Z,4.18
2023-01-07T04:08:06.138Z,5.15
2023-01-07T04:11:42.101Z,4.65
2023-01-07T04:15:15.119Z,4.80
2023-01-07T04:18:47.763Z,3.78
2023-01-07T04:22:28.379Z,4.30
2023-01-07T04:26:02.923Z,4.65
2023-01-07T04:29:31.818Z,5.22
2023-01-07T04:32:50.032Z,5.53
2023-01-07T04:36:17.506Z,3.80
2023-01-07T04:39:35.079Z,5.10
2023-01-07T04:43:04.022Z,3.92
2023-01-07T04:46:12.926Z,4.18
2023-01-07T04:49:38.853Z,4.53
2023-01-07T04:53:09.929Z,6.07
2023-01-07T04:56:36.641Z,5.35
2023-01-07T05:00:10.866Z,5.70
2023-01-07T05:03:39.868Z,4.82
2023-01-07T05:10:16.793Z,2.55
2023-01-07T05:13:55.900Z,4.22
2023-01-07T05:17:31.084Z,3.97
2023-01-07T05:20:51.679Z,3.65
2023-01-07T05:24:28.824Z,4.20
2023-01-07T05:28:04.808Z,3.70
2023-01-07T05:31:33.226Z,2.87
2023-01-07T05:34:54.871Z,3.65
2023-01-07T05:38:33.407Z,4.93
2023-01-07T05:42:03.838Z,5.10
2023-01-07T05:45:24.648Z,5.97
2023-01-07T05:48:59.903Z,3.78
2023-01-07T05:52:30.816Z,4.10
2023-01-07T05:56:08.329Z,3.65
2023-01-07T05:59:40.790Z,4.62
2023-01-07T06:03:07.648Z,3.80
2023-01-07T06:06:44.307Z,3.12
2023-01-07T06:10:03.908Z,5.50
2023-01-07T06:13:30.668Z,3.47
2023-01-07T06:16:49.700Z,4.93
2023-01-07T06:20:24.682Z,5.05
2023-01-07T06:23:59.838Z,5.00
2023-01-07T06:27:24.041Z,5.12
2023-01-07T06:30:55.580Z,4.12
2023-01-07T06:34:32.267Z,5.72
2023-01-07T06:38:37.742Z,6.30
2023-01-07T06:42:10.072Z,4.82
2023-01-07T06:45:44.581Z,5.80
2023-01-07T06:49:24.274Z,5.45
2023-01-07T06:52:58.499Z,6.30
2023-01-07T06:56:27.773Z,5.87
2023-01-07T06:59:57.559Z,5.57
2023-01-07T07:03:20.941Z,4.60
2023-01-07T07:06:58.882Z,4.32
2023-01-07T07:10:33.788Z,5.07
2023-01-07T07:13:51.430Z,6.55
2023-01-07T07:17:22.309Z,6.57
2023-01-07T07:21:11.858Z,5.05
2023-01-07T07:24:47.490Z,5.20
2023-01-07T07:28:20.370Z,5.53
2023-01-07T07:32:03.718Z,5.87
2023-01-07T07:35:33.406Z,4.93
2023-01-07T07:39:04.785Z,5.45
2023-01-07T07:49:48.243Z,6.93
2023-01-07T07:53:28.020Z,6.90
2023-01-07T07:57:01.670Z,8.88
2023-01-07T08:00:24.760Z,6.25
2023-01-07T08:03:49.793Z,6.30
2023-01-07T08:07:32.231Z,6.32
2023-01-07T08:11:07.174Z,8.73
2023-01-07T08:14:43.940Z,6.25
2023-01-07T08:18:23.943Z,7.53
2023-01-07T08:25:51.985Z,6.55
2023-01-07T08:29:10.172Z,6.68
2023-01-07T08:32:29.156Z,7.32
2023-01-07T08:36:22.975Z,6.97
2023-01-07T08:40:10.381Z,8.35
2023-01-07T08:43:45.348Z,6.53
2023-01-07T08:47:23.605Z,7.47
2023-01-07T08:50:59.902Z,8.82
2023-01-07T08:55:03.671Z,7.97
2023-01-07T08:58:40.201Z,7.82
2023-01-07T09:02:19.116Z,8.52
2023-01-07T09:06:06.882Z,7.93
2023-01-07T09:09:43.196Z,7.85
2023-01-07T09:13:04.895Z,8.80
2023-01-07T09:16:45.518Z,7.83
2023-01-07T09:20:17.622Z,8.23
2023-01-07T09:23:55.377Z,9.40
2023-01-07T09:34:42.707Z,9.55
2023-01-07T09:38:20.671Z,8.55
2023-01-07T09:42:07.078Z,9.95
2023-01-07T09:46:01.909Z,8.50
2023-01-07T09:49:44.495Z,9.43
2023-01-07T09:53:49.285Z,9.43
2023-01-07T09:57:24.523Z,9.13
2023-01-07T10:01:08.364Z,8.90
2023-01-07T10:04:36.645Z,9.48
2023-01-07T10:08:32.194Z,9.82
2023-01-07T10:12:27.485Z,9.97
2023-01-07T10:20:05.234Z,9.48
2023-01-07T10:23:57.714Z,9.52
2023-01-07T10:27:38.396Z,9.75
2023-01-07T10:31:30.335Z,9.35
2023-01-07T10:34:57.569Z,9.93
2023-01-07T10:42:55.135Z,9.45
2023-01-07T10:46:46.633Z,8.02
2023-01-07T10:50:35.951Z,7.30
2023-01-07T10:54:38.958Z,7.97
2023-01-07T10:58:23.391Z,7.07
2023-01-07T11:02:28.052Z,6.97
2023-01-07T11:06:00.352Z,7.90
2023-01-07T11:09:48.306Z,6.60
2023-01-07T11:13:28.920Z,6.75
2023-01-07T11:17:46.006Z,7.53
2023-01-07T11:21:50.413Z,6.15
2023-01-07T11:25:33.781Z,7.32
2023-01-07T11:28:58.420Z,7.20
2023-01-07T11:41:08.239Z,7.87
2023-01-07T11:45:27.740Z,8.10
2023-01-07T11:49:43.884Z,7.93
2023-01-07T11:53:15.788Z,8.75
2023-01-07T11:56:43.426Z,8.18
2023-01-07T12:00:31.723Z,9.18
2023-01-07T12:03:56.908Z,8.30
2023-01-07T12:07:29.265Z,7.93
2023-01-07T12:11:09.189Z,7.85
2023-01-07T12:14:25.645Z,8.77
2023-01-07T12:18:08.924Z,9.57
2023-01-07T12:21:51.304Z,8.30
2023-01-07T12:25:52.589Z,8.63
2023-01-07T12:29:21.289Z,8.48
2023-01-07T12:33:41.728Z,8.63
2023-01-07T12:37:15.837Z,8.85
2023-01-07T12:40:46.202Z,7.72
2023-01-07T12:44:18.880Z,7.80
2023-01-07T12:47:54.236Z,8.10
2023-01-07T12:52:00.528Z,6.60
2023-01-07T12:55:42.314Z,6.82
2023-01-07T12:59:45.811Z,5.72
2023-01-07T13:03:56.072Z,6.12
2023-01-07T13:07:11.946Z,6.03
2023-01-07T13:10:45.759Z,5.12
2023-01-07T13:14:47.043Z,4.90
2023-01-07T13:18:11.480Z,4.72
2023-01-07T13:21:43.691Z,4.70
2023-01-07T13:25:12.615Z,4.37
2023-01-07T13:29:21.494Z,4.68
2023-01-07T13:33:18.699Z,4.50
2023-01-07T13:36:57.735Z,4.70
2023-01-07T13:40:48.376Z,4.62
2023-01-07T13:44:44.905Z,4.70
2023-01-07T13:48:25.788Z,5.03
2023-01-07T13:52:20.639Z,4.35
2023-01-07T13:55:46.987Z,4.07
2023-01-07T13:59:56.561Z,5.62
2023-01-07T14:03:51.403Z,6.90
2023-01-07T14:07:00.588Z,7.50
2023-01-07T14:10:04.520Z,7.32
2023-01-07T14:14:39.008Z,7.10
2023-01-07T14:18:39.280Z,7.60
2023-01-07T14:23:07.435Z,7.45
2023-01-07T14:26:27.172Z,5.70
2023-01-07T14:30:02.947Z,6.43
2023-01-07T14:33:47.297Z,5.75
2023-01-07T14:37:16.842Z,6.43
2023-01-07T14:41:03.543Z,6.82
2023-01-07T14:44:30.515Z,6.32
2023-01-07T14:47:49.605Z,6.57
2023-01-07T14:51:51.465Z,6.12
2023-01-07T14:55:41.711Z,6.43
2023-01-07T14:59:28.792Z,5.80
2023-01-07T15:03:17.487Z,7.07
2023-01-07T15:06:44.117Z,6.97
2023-01-07T15:10:16.044Z,8.10
2023-01-07T15:14:21.946Z,8.35
2023-01-07T15:17:49.316Z,8.13
2023-01-07T15:22:09.212Z,7.30
2023-01-07T15:25:49.314Z,7.15
2023-01-07T15:29:52.983Z,6.95
2023-01-07T15:33:32.889Z,7.75
2023-01-07T15:36:58.414Z,7.72
2023-01-07T15:40:47.401Z,6.90
2023-01-07T15:44:40.906Z,7.90
2023-01-07T15:48:37.129Z,8.43
2023-01-07T15:51:42.305Z,9.15
2023-01-07T15:54:48.977Z,8.27
2023-01-07T15:58:50.295Z,8.10
2023-01-07T16:02:29.337Z,7.75
2023-01-07T16:05:38.638Z,7.15
2023-01-07T16:09:19.925Z,8.27
2023-01-07T16:12:36.425Z,8.23
2023-01-07T16:16:09.569Z,7.95
2023-01-07T16:20:24.132Z,7.65
2023-01-07T16:23:38.476Z,7.97
2023-01-07T16:27:30.994Z,8.27
2023-01-07T16:30:55.963Z,9.02
2023-01-07T16:34:00.212Z,8.15
2023-01-07T16:37:12.792Z,9.60
2023-01-07T16:40:37.665Z,10.52
2023-01-07T16:44:40.595Z,8.45
2023-01-07T16:47:43.851Z,7.78
2023-01-07T16:50:48.975Z,9.57
2023-01-07T16:53:52.415Z,9.60
2023-01-07T16:57:18.875Z,8.73
2023-01-07T17:00:22.467Z,8.60
2023-01-07T17:03:28.054Z,8.77
2023-01-07T17:06:45.152Z,8.23
2023-01-07T17:10:33.948Z,7.72
2023-01-07T17:13:42.123Z,7.80
2023-01-07T17:17:04.040Z,9.68
2023-01-07T17:20:29.637Z,10.95
2023-01-07T17:23:41.934Z,9.27
2023-01-07T17:26:50.774Z,8.25
2023-01-07T17:29:54.868Z,8.45
2023-01-07T17:32:58.102Z,9.38
2023-01-07T17:36:03.481Z,7.70
2023-01-07T17:39:11.735Z,8.98
2023-01-07T17:42:47.596Z,9.00
2023-01-07T17:45:53.307Z,9.68
2023-01-07T17:48:57.698Z,9.20
2023-01-07T17:52:02.586Z,9.50
2023-01-07T17:55:06.191Z,9.13
2023-01-07T17:58:28.840Z,9.70
2023-01-07T18:01:32.203Z,9.60
2023-01-07T18:04:39.134Z,9.80
2023-01-07T18:08:01.972Z,9.95
2023-01-07T18:11:24.526Z,9.60
2023-01-07T18:14:27.807Z,9.68
2023-01-07T18:17:32.077Z,10.52
2023-01-07T18:20:38.931Z,8.93
2023-01-07T18:24:02.728Z,9.27
2023-01-07T18:27:06.042Z,8.77
2023-01-07T18:30:13.916Z,10.65
2023-01-07T18:36:22.217Z,8.07
2023-01-07T18:39:26.374Z,8.85
2023-01-07T18:42:32.285Z,8.80
2023-01-07T18:45:40.983Z,9.07
2023-01-07T18:48:45.226Z,11.20
2023-01-07T18:51:48.962Z,8.35
2023-01-07T18:54:54.597Z,10.57
2023-01-07T18:57:57.911Z,8.90
2023-01-07T19:01:42.713Z,8.85
2023-01-07T19:04:47.831Z,10.60
2023-01-07T19:07:52.898Z,9.05
2023-01-07T19:10:57.769Z,9.57
2023-01-07T19:14:01.745Z,9.98
2023-01-07T19:17:05.141Z,10.10
2023-01-07T19:20:10.234Z,11.93
2023-01-07T19:23:13.334Z,8.88
2023-01-07T19:26:18.555Z,9.48
2023-01-07T19:29:23.489Z,8.50
2023-01-07T19:32:32.496Z,10.80
2023-01-07T19:35:43.576Z,10.20
2023-01-07T19:38:49.057Z,9.25
2023-01-07T19:41:52.728Z,8.38
2023-01-07T19:44:56.838Z,9.05
2023-01-07T19:48:01.663Z,9.13
2023-01-07T19:51:15.547Z,8.80
2023-01-07T19:54:19.549Z,8.65
2023-01-07T19:57:23.510Z,9.45
2023-01-07T20:00:27.555Z,10.05
2023-01-07T20:03:32.981Z,8.48
2023-01-07T20:06:41.869Z,8.32
2023-01-07T20:09:45.596Z,8.90
2023-01-07T20:12:53.733Z,10.35
2023-01-07T20:15:57.101Z,8.98
2023-01-07T20:19:02.464Z,9.52
2023-01-07T20:22:25.922Z,8.68
2023-01-07T20:25:30.686Z,10.98
2023-01-07T20:28:35.816Z,9.05
2023-01-07T20:31:39.055Z,9.20
2023-01-07T20:35:23.370Z,11.70
2023-01-07T20:38:29.135Z,11.45
2023-01-07T20:41:35.553Z,11.18
2023-01-07T20:44:42.009Z,10.10
2023-01-07T20:48:05.904Z,11.60
2023-01-07T20:51:10.243Z,12.57
2023-01-07T20:54:16.244Z,9.98
2023-01-07T20:57:19.562Z,9.87
2023-01-07T21:00:23.684Z,11.00
2023-01-07T21:03:27.740Z,9.65
2023-01-07T21:06:32.125Z,10.73
2023-01-07T21:09:36.018Z,10.27
2023-01-07T21:12:43.519Z,9.63
2023-01-07T21:15:46.921Z,10.95
2023-01-07T21:18:50.802Z,11.68
2023-01-07T21:21:54.171Z,11.32
2023-01-07T21:24:57.566Z,10.85
2023-01-07T21:28:02.198Z,9.95
2023-01-07T21:31:27.414Z,10.48
2023-01-07T21:34:31.678Z,11.75
2023-01-07T21:37:39.303Z,10.73
2023-01-07T21:40:44.848Z,11.43
2023-01-07T21:43:48.936Z,10.88
2023-01-07T21:46:56.941Z,11.35
2023-01-07T21:50:05.402Z,10.27
2023-01-07T21:53:08.896Z,10.48
2023-01-07T21:56:18.647Z,9.85
2023-01-07T21:59:22.118Z,10.85
2023-01-07T22:02:49.443Z,10.95
2023-01-07T22:06:26.269Z,9.45
2023-01-07T22:09:29.044Z,10.57
2023-01-07T22:12:53.851Z,10.80
2023-01-07T22:15:57.409Z,11.18
2023-01-07T22:19:01.706Z,10.23
2023-01-07T22:22:37.295Z,10.02
2023-01-07T22:25:40.848Z,10.85
2023-01-07T22:28:54.923Z,10.73
2023-01-07T22:31:58.969Z,9.90
2023-01-07T22:35:07.918Z,10.15
2023-01-07T22:38:14.692Z,10.13
2023-01-07T22:41:18.768Z,9.93
2023-01-07T22:44:37.828Z,11.98
2023-01-07T22:47:50.747Z,11.45
2023-01-07T22:50:58.059Z,11.70
2023-01-07T22:54:02.272Z,11.23
2023-01-07T22:57:12.361Z,11.27
2023-01-07T23:00:50.855Z,11.30
2023-01-07T23:03:55.670Z,11.60
2023-01-07T23:06:58.531Z,9.35
2023-01-07T23:10:01.766Z,10.27
2023-01-07T23:13:06.393Z,10.95
2023-01-07T23:16:09.820Z,10.40
2023-01-07T23:19:14.030Z,13.13
2023-01-07T23:22:18.964Z,10.77
2023-01-07T23:25:22.863Z,10.70
2023-01-07T23:28:26.997Z,9.98
2023-01-07T23:31:30.668Z,10.40
2023-01-07T23:34:34.849Z,10.18
2023-01-07T23:37:38.991Z,10.57
2023-01-07T23:40:43.491Z,10.27
2023-01-07T23:43:48.369Z,9.60
2023-01-07T23:46:51.871Z,10.45
2023-01-07T23:49:55.025Z,10.35
2023-01-07T23:53:00.421Z,10.27
2023-01-07T23:56:06.122Z,10.13
2023-01-07T23:59:14.027Z,9.10
